createdAt,value
2018-09-22T00:00:12.623Z,27.02
2018-09-22T00:01:12.628Z,27.07
2018-09-22T00:02:12.634Z,27.09
2018-09-22T00:03:12.640Z,27.10
2018-09-22T00:04:12.647Z,27.07
2018-09-22T00:05:12.655Z,27.12
2018-09-22T00:06:12.661Z,27.09
2018-09-22T00:07:12.666Z,27.12
2018-09-22T00:08:12.672Z,27.09
2018-09-22T00:09:12.677Z,27.07
2018-09-22T00:10:12.687Z,27.09
2018-09-22T00:11:12.687Z,27.09
2018-09-22T00:12:12.696Z,27.07
2018-09-22T00:13:12.703Z,27.13
2018-09-22T00:14:12.709Z,27.06
2018-09-22T00:15:12.718Z,27.10
2018-09-22T00:16:12.724Z,27.10
2018-09-22T00:17:12.726Z,27.09
2018-09-22T00:18:12.732Z,27.12
2018-09-22T00:19:12.739Z,27.10
2018-09-22T00:20:12.745Z,27.07
2018-09-22T00:21:12.752Z,27.07
2018-09-22T00:22:12.758Z,27.09
2018-09-22T00:23:12.764Z,27.04
2018-09-22T00:24:12.773Z,27.13
2018-09-22T00:25:12.776Z,27.13
2018-09-22T00:26:12.782Z,27.14
2018-09-22T00:27:12.807Z,27.06
2018-09-22T00:28:12.800Z,27.09
2018-09-22T00:29:12.804Z,27.10
2018-09-22T00:30:12.806Z,27.10
2018-09-22T00:31:12.816Z,27.06
2018-09-22T00:32:12.822Z,27.04
2018-09-22T00:33:12.825Z,27.09
2018-09-22T00:34:12.834Z,27.10
2018-09-22T00:35:12.837Z,27.09
2018-09-22T00:36:12.848Z,27.06
2018-09-22T00:37:12.852Z,27.12
2018-09-22T00:38:12.856Z,27.07
2018-09-22T00:39:12.862Z,27.10
2018-09-22T00:40:12.869Z,27.09
2018-09-22T00:41:12.873Z,27.07
2018-09-22T00:42:12.881Z,27.09
2018-09-22T00:43:12.887Z,27.12
2018-09-22T00:44:12.893Z,27.09
2018-09-22T00:45:12.896Z,27.07
2018-09-22T00:46:12.908Z,27.12
2018-09-22T00:47:12.911Z,27.10
2018-09-22T00:48:12.925Z,27.04
2018-09-22T00:49:12.923Z,27.10
2018-09-22T00:50:12.929Z,27.06
2018-09-22T00:51:12.936Z,27.09
2018-09-22T00:52:12.942Z,27.13
2018-09-22T00:53:12.947Z,27.09
2018-09-22T00:54:12.954Z,27.13
2018-09-22T00:55:12.966Z,27.04
2018-09-22T00:56:12.965Z,27.10
2018-09-22T00:57:12.972Z,27.10
2018-09-22T00:58:12.978Z,27.02
2018-09-22T00:59:12.985Z,27.09
2018-09-22T01:00:13.000Z,27.09
2018-09-22T01:01:12.999Z,27.06
2018-09-22T01:02:13.004Z,27.10
2018-09-22T01:03:13.009Z,27.06
2018-09-22T01:04:13.015Z,27.10
2018-09-22T01:05:13.022Z,27.09
2018-09-22T01:06:13.035Z,27.03
2018-09-22T01:07:13.036Z,27.04
2018-09-22T01:08:13.040Z,27.13
2018-09-22T01:09:13.045Z,27.07
2018-09-22T01:10:13.052Z,27.04
2018-09-22T01:11:13.057Z,27.14
2018-09-22T01:12:13.074Z,27.04
2018-09-22T01:13:13.070Z,27.10
2018-09-22T01:14:13.078Z,27.07
2018-09-22T01:15:13.083Z,27.04
2018-09-22T01:16:13.090Z,27.06
2018-09-22T01:17:13.096Z,27.06
2018-09-22T01:18:13.108Z,27.10
2018-09-22T01:19:13.107Z,27.13
2018-09-22T01:20:13.114Z,27.07
2018-09-22T01:21:13.121Z,27.10
2018-09-22T01:22:13.131Z,27.12
2018-09-22T01:23:13.132Z,27.10
2018-09-22T01:24:13.142Z,27.12
2018-09-22T01:25:13.144Z,27.07
2018-09-22T01:26:13.162Z,27.10
2018-09-22T01:27:13.156Z,27.07
2018-09-22T01:28:13.164Z,27.13
2018-09-22T01:29:13.168Z,27.10
2018-09-22T01:30:13.175Z,27.09
2018-09-22T01:31:13.179Z,27.03
2018-09-22T01:32:13.189Z,27.12
2018-09-22T01:33:13.192Z,27.12
2018-09-22T01:34:13.223Z,27.10
2018-09-22T01:35:13.205Z,27.12
2018-09-22T01:36:13.214Z,27.06
2018-09-22T01:37:13.217Z,27.13
2018-09-22T01:38:13.224Z,27.06
2018-09-22T01:39:13.230Z,27.10
2018-09-22T01:40:13.237Z,27.14
2018-09-22T01:41:13.248Z,27.07
2018-09-22T01:42:13.249Z,27.13
2018-09-22T01:43:13.260Z,27.12
2018-09-22T01:44:13.266Z,27.14
2018-09-22T01:45:13.267Z,27.13
2018-09-22T01:46:13.271Z,27.14
2018-09-22T01:47:13.286Z,27.03
2018-09-22T01:48:13.288Z,27.10
2018-09-22T01:49:13.290Z,27.09
2018-09-22T01:50:13.299Z,27.13
2018-09-22T01:51:13.303Z,27.10
2018-09-22T01:52:13.310Z,27.13
2018-09-22T01:53:13.315Z,27.09
2018-09-22T01:54:13.322Z,27.09
2018-09-22T01:55:13.331Z,27.13
2018-09-22T01:56:13.342Z,27.04
2018-09-22T01:57:13.340Z,27.09
2018-09-22T01:58:13.346Z,27.10
2018-09-22T01:59:13.356Z,27.14
2018-09-22T02:00:13.359Z,27.13
2018-09-22T02:01:13.365Z,27.10
2018-09-22T02:02:13.371Z,27.09
2018-09-22T02:03:13.378Z,27.07
2018-09-22T02:04:13.384Z,27.07
2018-09-22T02:05:13.394Z,27.17
2018-09-22T02:06:13.396Z,27.12
2018-09-22T02:07:13.406Z,27.06
2018-09-22T02:08:13.408Z,27.09
2018-09-22T02:09:13.414Z,27.06
2018-09-22T02:10:13.420Z,27.10
2018-09-22T02:11:13.432Z,27.10
2018-09-22T02:12:13.432Z,27.00
2018-09-22T02:13:13.440Z,27.07
2018-09-22T02:14:13.445Z,27.07
2018-09-22T02:15:13.452Z,26.99
2018-09-22T02:16:13.482Z,27.02
2018-09-22T02:17:13.471Z,26.97
2018-09-22T02:18:13.469Z,26.97
2018-09-22T02:19:13.482Z,26.99
2018-09-22T02:20:13.483Z,26.92
2018-09-22T02:21:13.485Z,26.95
2018-09-22T02:22:13.493Z,26.92
2018-09-22T02:23:13.500Z,27.02
2018-09-22T02:24:13.510Z,27.00
2018-09-22T02:25:13.513Z,27.00
2018-09-22T02:26:13.518Z,26.91
2018-09-22T02:27:13.524Z,26.95
2018-09-22T02:28:13.530Z,26.94
2018-09-22T02:29:13.538Z,26.95
2018-09-22T02:30:13.544Z,26.99
2018-09-22T02:31:13.548Z,26.92
2018-09-22T02:32:13.554Z,26.92
2018-09-22T02:33:13.559Z,26.95
2018-09-22T02:34:13.567Z,26.91
2018-09-22T02:35:13.580Z,26.92
2018-09-22T02:36:13.584Z,26.84
2018-09-22T02:37:13.584Z,26.89
2018-09-22T02:38:13.590Z,26.82
2018-09-22T02:39:13.597Z,26.81
2018-09-22T02:40:13.604Z,26.85
2018-09-22T02:41:13.617Z,26.84
2018-09-22T02:42:13.616Z,26.81
2018-09-22T02:43:13.620Z,26.87
2018-09-22T02:44:13.627Z,26.85
2018-09-22T02:45:13.634Z,26.77
2018-09-22T02:46:13.642Z,26.81
2018-09-22T02:47:13.650Z,26.82
2018-09-22T02:48:13.652Z,26.84
2018-09-22T02:49:13.657Z,26.73
2018-09-22T02:50:13.662Z,26.75
2018-09-22T02:51:13.677Z,26.75
2018-09-22T02:52:13.675Z,26.67
2018-09-22T02:53:13.680Z,26.77
2018-09-22T02:54:13.686Z,26.81
2018-09-22T02:55:13.694Z,26.81
2018-09-22T02:56:13.708Z,26.75
2018-09-22T02:57:13.707Z,26.76
2018-09-22T02:58:13.710Z,26.73
2018-09-22T02:59:13.717Z,26.75
2018-09-22T03:00:13.723Z,26.80
2018-09-22T03:01:13.733Z,26.77
2018-09-22T03:02:13.734Z,26.75
2018-09-22T03:03:13.740Z,26.76
2018-09-22T03:04:13.746Z,26.70
2018-09-22T03:05:13.752Z,26.70
2018-09-22T03:06:13.755Z,26.73
2018-09-22T03:07:13.776Z,26.75
2018-09-22T03:08:13.774Z,26.75
2018-09-22T03:09:13.783Z,26.73
2018-09-22T03:10:13.782Z,26.63
2018-09-22T03:11:13.819Z,26.67
2018-09-22T03:12:13.796Z,26.73
2018-09-22T03:13:13.799Z,26.80
2018-09-22T03:14:13.808Z,26.66
2018-09-22T03:15:13.838Z,26.75
2018-09-22T03:16:13.817Z,26.57
2018-09-22T03:17:13.822Z,26.62
2018-09-22T03:18:13.830Z,26.62
2018-09-22T03:19:13.835Z,26.62
2018-09-22T03:20:13.841Z,26.54
2018-09-22T03:21:13.846Z,26.63
2018-09-22T03:22:13.856Z,26.55
2018-09-22T03:23:13.859Z,26.57
2018-09-22T03:24:13.864Z,26.57
2018-09-22T03:25:13.871Z,26.54
2018-09-22T03:26:13.876Z,26.48
2018-09-22T03:27:13.881Z,26.51
2018-09-22T03:28:13.889Z,26.51
2018-09-22T03:29:13.893Z,26.60
2018-09-22T03:30:13.899Z,26.47
2018-09-22T03:31:13.906Z,26.48
2018-09-22T03:32:13.912Z,26.43
2018-09-22T03:33:13.918Z,26.51
2018-09-22T03:34:13.922Z,26.47
2018-09-22T03:35:13.930Z,26.48
2018-09-22T03:36:13.941Z,26.50
2018-09-22T03:37:13.941Z,26.54
2018-09-22T03:38:13.946Z,26.54
2018-09-22T03:39:13.952Z,26.48
2018-09-22T03:40:13.958Z,26.51
2018-09-22T03:41:13.962Z,26.57
2018-09-22T03:42:13.970Z,26.57
2018-09-22T03:43:13.974Z,26.57
2018-09-22T03:44:13.981Z,26.58
2018-09-22T03:45:13.987Z,26.51
2018-09-22T03:46:14.003Z,26.51
2018-09-22T03:47:13.999Z,26.50
2018-09-22T03:48:14.010Z,26.47
2018-09-22T03:49:14.017Z,26.45
2018-09-22T03:50:14.016Z,26.47
2018-09-22T03:51:14.024Z,26.48
2018-09-22T03:52:14.026Z,26.45
2018-09-22T03:53:14.033Z,26.50
2018-09-22T03:54:14.043Z,26.45
2018-09-22T03:55:14.045Z,26.48
2018-09-22T03:56:14.052Z,26.40
2018-09-22T03:57:14.052Z,26.45
2018-09-22T03:58:14.065Z,26.51
2018-09-22T03:59:14.066Z,26.39
2018-09-22T04:00:14.074Z,26.39
2018-09-22T04:01:14.104Z,26.44
2018-09-22T04:02:14.085Z,26.47
2018-09-22T04:03:14.090Z,26.45
2018-09-22T04:04:14.096Z,26.48
2018-09-22T04:05:14.102Z,26.48
2018-09-22T04:06:14.108Z,26.39
2018-09-22T04:07:14.113Z,26.51
2018-09-22T04:08:14.124Z,26.50
2018-09-22T04:09:14.125Z,26.39
2018-09-22T04:10:14.132Z,26.39
2018-09-22T04:11:14.137Z,26.48
2018-09-22T04:12:14.148Z,26.48
2018-09-22T04:13:14.153Z,26.43
2018-09-22T04:14:14.157Z,26.50
2018-09-22T04:15:14.163Z,26.45
2018-09-22T04:16:14.170Z,26.47
2018-09-22T04:17:14.173Z,26.48
2018-09-22T04:18:14.177Z,26.50
2018-09-22T04:19:14.184Z,26.40
2018-09-22T04:20:14.189Z,26.50
2018-09-22T04:21:14.195Z,26.52
2018-09-22T04:22:14.200Z,26.45
2018-09-22T04:23:14.211Z,26.52
2018-09-22T04:24:14.212Z,26.50
2018-09-22T04:25:14.224Z,26.50
2018-09-22T04:26:14.225Z,26.47
2018-09-22T04:27:14.231Z,26.44
2018-09-22T04:28:14.237Z,26.48
2018-09-22T04:29:14.241Z,26.51
2018-09-22T04:30:14.247Z,26.44
2018-09-22T04:31:14.254Z,26.50
2018-09-22T04:32:14.258Z,26.50
2018-09-22T04:33:14.334Z,26.45
2018-09-22T04:34:14.269Z,26.50
2018-09-22T04:35:14.276Z,26.48
2018-09-22T04:36:14.283Z,26.47
2018-09-22T04:37:14.286Z,26.45
2018-09-22T04:38:14.292Z,26.40
2018-09-22T04:39:14.298Z,26.47
2018-09-22T04:40:14.304Z,26.47
2018-09-22T04:41:14.309Z,26.48
2018-09-22T04:42:14.316Z,26.43
2018-09-22T04:43:14.323Z,26.50
2018-09-22T04:44:14.328Z,26.44
2018-09-22T04:45:14.332Z,26.44
2018-09-22T04:46:14.370Z,26.47
2018-09-22T04:47:14.346Z,26.52
2018-09-22T04:48:14.350Z,26.47
2018-09-22T04:49:14.355Z,26.45
2018-09-22T04:50:14.361Z,26.48
2018-09-22T04:51:14.367Z,26.51
2018-09-22T04:52:14.375Z,26.47
2018-09-22T04:53:14.384Z,26.44
2018-09-22T04:54:14.387Z,26.50
2018-09-22T04:55:14.388Z,26.45
2018-09-22T04:56:14.397Z,26.45
2018-09-22T04:57:14.401Z,26.50
2018-09-22T04:58:14.407Z,26.45
2018-09-22T04:59:14.416Z,26.51
2018-09-22T05:00:14.420Z,26.47
2018-09-22T05:01:14.423Z,26.51
2018-09-22T05:02:14.431Z,26.45
2018-09-22T05:03:14.436Z,26.48
2018-09-22T05:04:14.440Z,26.51
2018-09-22T05:05:14.451Z,26.51
2018-09-22T05:06:14.459Z,26.40
2018-09-22T05:07:14.460Z,26.39
2018-09-22T05:08:14.464Z,26.47
2018-09-22T05:09:14.470Z,26.50
2018-09-22T05:10:14.475Z,26.51
2018-09-22T05:11:14.492Z,26.47
2018-09-22T05:12:14.492Z,26.44
2018-09-22T05:13:14.494Z,26.45
2018-09-22T05:14:14.503Z,26.50
2018-09-22T05:15:14.504Z,26.37
2018-09-22T05:16:14.513Z,26.51
2018-09-22T05:17:14.517Z,26.45
2018-09-22T05:18:14.522Z,26.48
2018-09-22T05:19:14.528Z,26.50
2018-09-22T05:20:14.534Z,26.43
2018-09-22T05:21:14.538Z,26.48
2018-09-22T05:22:14.544Z,26.40
2018-09-22T05:23:14.557Z,26.40
2018-09-22T05:24:14.561Z,26.48
2018-09-22T05:25:14.564Z,26.52
2018-09-22T05:26:14.567Z,26.43
2018-09-22T05:27:14.572Z,26.45
2018-09-22T05:28:14.582Z,26.40
2018-09-22T05:29:14.590Z,26.40
2018-09-22T05:30:14.593Z,26.47
2018-09-22T05:31:14.597Z,26.48
2018-09-22T05:32:14.604Z,26.44
2018-09-22T05:33:14.607Z,26.48
2018-09-22T05:34:14.613Z,26.47
2018-09-22T05:35:14.619Z,26.43
2018-09-22T05:36:14.625Z,26.47
2018-09-22T05:37:14.631Z,26.47
2018-09-22T05:38:14.637Z,26.44
2018-09-22T05:39:14.642Z,26.47
2018-09-22T05:40:14.649Z,26.43
2018-09-22T05:41:14.653Z,26.43
2018-09-22T05:42:14.659Z,26.47
2018-09-22T05:43:14.666Z,26.45
2018-09-22T05:44:14.673Z,26.50
2018-09-22T05:45:14.676Z,26.48
2018-09-22T05:46:14.705Z,26.43
2018-09-22T05:47:14.696Z,26.51
2018-09-22T05:48:14.694Z,26.48
2018-09-22T05:49:14.700Z,26.50
2018-09-22T05:50:14.705Z,26.48
2018-09-22T05:51:14.724Z,26.47
2018-09-22T05:52:14.720Z,26.50
2018-09-22T05:53:14.722Z,26.40
2018-09-22T05:54:14.728Z,26.48
2018-09-22T05:55:14.734Z,26.39
2018-09-22T05:56:14.740Z,26.43
2018-09-22T05:57:14.744Z,26.45
2018-09-22T05:58:14.834Z,26.50
2018-09-22T05:59:14.757Z,26.47
2018-09-22T06:00:14.764Z,26.45
2018-09-22T06:01:14.767Z,26.51
2018-09-22T06:02:14.774Z,26.52
2018-09-22T06:03:14.783Z,26.47
2018-09-22T06:04:14.792Z,26.40
2018-09-22T06:05:14.792Z,26.44
2018-09-22T06:06:14.797Z,26.45
2018-09-22T06:07:14.801Z,26.45
2018-09-22T06:08:14.810Z,26.43
2018-09-22T06:09:14.814Z,26.43
2018-09-22T06:10:14.820Z,26.50
2018-09-22T06:11:14.826Z,26.48
2018-09-22T06:12:14.832Z,26.45
2018-09-22T06:13:14.837Z,26.44
2018-09-22T06:14:14.843Z,26.50
2018-09-22T06:15:14.848Z,26.40
2018-09-22T06:16:14.853Z,26.44
2018-09-22T06:17:14.864Z,26.43
2018-09-22T06:18:14.866Z,26.47
2018-09-22T06:19:14.872Z,26.45
2018-09-22T06:20:14.880Z,26.40
2018-09-22T06:21:14.883Z,26.37
2018-09-22T06:22:14.889Z,26.43
2018-09-22T06:23:15.035Z,26.43
2018-09-22T06:24:14.905Z,26.43
2018-09-22T06:25:14.906Z,26.44
2018-09-22T06:26:14.908Z,26.43
2018-09-22T06:27:14.917Z,26.44
2018-09-22T06:28:14.924Z,26.48
2018-09-22T06:29:14.930Z,26.54
2018-09-22T06:30:14.935Z,26.44
2018-09-22T06:31:14.953Z,26.47
2018-09-22T06:32:14.949Z,26.39
2018-09-22T06:33:14.952Z,26.50
2018-09-22T06:34:14.962Z,26.48
2018-09-22T06:35:14.966Z,26.47
2018-09-22T06:36:14.970Z,26.48
2018-09-22T06:37:15.063Z,26.45
2018-09-22T06:38:14.982Z,26.39
2018-09-22T06:39:14.987Z,26.43
2018-09-22T06:40:14.993Z,26.40
2018-09-22T06:41:14.996Z,26.36
2018-09-22T06:42:15.003Z,26.44
2018-09-22T06:43:15.010Z,26.43
2018-09-22T06:44:15.016Z,26.47
2018-09-22T06:45:15.021Z,26.51
2018-09-22T06:46:15.047Z,26.43
2018-09-22T06:47:15.032Z,26.50
2018-09-22T06:48:15.044Z,26.39
2018-09-22T06:49:15.043Z,26.47
2018-09-22T06:50:15.053Z,26.45
2018-09-22T06:51:15.056Z,26.39
2018-09-22T06:52:15.061Z,26.43
2018-09-22T06:53:15.067Z,26.45
2018-09-22T06:54:15.072Z,26.47
2018-09-22T06:55:15.079Z,26.48
2018-09-22T06:56:15.082Z,26.51
2018-09-22T06:57:15.092Z,26.48
2018-09-22T06:58:15.095Z,26.44
2018-09-22T06:59:15.101Z,26.44
2018-09-22T07:00:15.109Z,26.47
2018-09-22T07:01:15.114Z,26.47
2018-09-22T07:02:15.118Z,26.45
2018-09-22T07:03:15.124Z,26.45
2018-09-22T07:04:15.131Z,26.37
2018-09-22T07:05:15.135Z,26.44
2018-09-22T07:06:15.194Z,26.45
2018-09-22T07:07:15.149Z,26.44
2018-09-22T07:08:15.154Z,26.44
2018-09-22T07:09:15.159Z,26.40
2018-09-22T07:10:15.164Z,26.44
2018-09-22T07:11:15.168Z,26.39
2018-09-22T07:12:15.177Z,26.45
2018-09-22T07:13:15.184Z,26.45
2018-09-22T07:14:15.187Z,26.44
2018-09-22T07:15:15.193Z,26.48
2018-09-22T07:16:15.198Z,26.40
2018-09-22T07:17:15.205Z,26.40
2018-09-22T07:18:15.210Z,26.43
2018-09-22T07:19:15.216Z,26.44
2018-09-22T07:20:15.223Z,26.48
2018-09-22T07:21:15.227Z,26.48
2018-09-22T07:22:15.238Z,26.43
2018-09-22T07:23:15.240Z,26.47
2018-09-22T07:24:15.249Z,26.45
2018-09-22T07:25:15.259Z,26.50
2018-09-22T07:26:15.286Z,26.45
2018-09-22T07:27:15.267Z,26.39
2018-09-22T07:28:15.272Z,26.47
2018-09-22T07:29:15.274Z,26.51
2018-09-22T07:30:15.279Z,26.44
2018-09-22T07:31:15.290Z,26.47
2018-09-22T07:32:15.292Z,26.47
2018-09-22T07:33:15.295Z,26.45
2018-09-22T07:34:15.303Z,26.44
2018-09-22T07:35:15.307Z,26.44
2018-09-22T07:36:15.313Z,26.45
2018-09-22T07:37:15.318Z,26.45
2018-09-22T07:38:15.326Z,26.47
2018-09-22T07:39:15.335Z,26.51
2018-09-22T07:40:15.343Z,26.48
2018-09-22T07:41:15.341Z,26.43
2018-09-22T07:42:15.347Z,26.50
2018-09-22T07:43:15.353Z,26.48
2018-09-22T07:44:15.363Z,26.40
2018-09-22T07:45:15.365Z,26.39
2018-09-22T07:46:15.397Z,26.45
2018-09-22T07:47:15.377Z,26.43
2018-09-22T07:48:15.384Z,26.48
2018-09-22T07:49:15.388Z,26.45
2018-09-22T07:50:15.393Z,26.39
2018-09-22T07:51:15.399Z,26.44
2018-09-22T07:52:15.406Z,26.47
2018-09-22T07:53:15.411Z,26.44
2018-09-22T07:54:15.417Z,26.47
2018-09-22T07:55:15.423Z,26.45
2018-09-22T07:56:15.431Z,26.36
2018-09-22T07:57:15.520Z,26.37
2018-09-22T07:58:15.441Z,26.43
2018-09-22T07:59:15.445Z,26.45
2018-09-22T08:00:15.513Z,26.45
2018-09-22T08:01:15.470Z,26.45
2018-09-22T08:02:15.462Z,26.39
2018-09-22T08:03:15.469Z,26.45
2018-09-22T08:04:15.475Z,26.45
2018-09-22T08:05:15.480Z,26.40
2018-09-22T08:06:15.486Z,26.39
2018-09-22T08:07:15.495Z,26.47
2018-09-22T08:08:15.499Z,26.45
2018-09-22T08:09:15.501Z,26.43
2018-09-22T08:10:15.510Z,26.44
2018-09-22T08:11:15.516Z,26.37
2018-09-22T08:12:15.521Z,26.44
2018-09-22T08:13:15.526Z,26.44
2018-09-22T08:14:15.533Z,26.40
2018-09-22T08:15:15.538Z,26.44
2018-09-22T08:16:15.556Z,26.47
2018-09-22T08:17:15.552Z,26.45
2018-09-22T08:18:15.559Z,26.47
2018-09-22T08:19:15.562Z,26.43
2018-09-22T08:20:15.568Z,26.44
2018-09-22T08:21:15.572Z,26.44
2018-09-22T08:22:15.581Z,26.47
2018-09-22T08:23:15.589Z,26.45
2018-09-22T08:24:15.589Z,26.45
2018-09-22T08:25:15.610Z,26.43
2018-09-22T08:26:15.601Z,26.47
2018-09-22T08:27:15.608Z,26.48
2018-09-22T08:28:15.613Z,26.44
2018-09-22T08:29:15.618Z,26.43
2018-09-22T08:30:15.623Z,26.39
2018-09-22T08:31:15.637Z,26.45
2018-09-22T08:32:15.636Z,26.44
2018-09-22T08:33:15.649Z,26.37
2018-09-22T08:34:15.646Z,26.47
2018-09-22T08:35:15.652Z,26.37
2018-09-22T08:36:15.817Z,26.43
2018-09-22T08:37:15.709Z,26.39
2018-09-22T08:38:15.672Z,26.39
2018-09-22T08:39:15.676Z,26.40
2018-09-22T08:40:15.681Z,26.47
2018-09-22T08:41:15.697Z,26.48
2018-09-22T08:42:15.691Z,26.43
2018-09-22T08:43:15.701Z,26.36
2018-09-22T08:44:15.706Z,26.40
2018-09-22T08:45:15.709Z,26.36
2018-09-22T08:46:15.715Z,26.47
2018-09-22T08:47:15.721Z,26.39
2018-09-22T08:48:15.727Z,26.45
2018-09-22T08:49:15.731Z,26.48
2018-09-22T08:50:15.742Z,26.40
2018-09-22T08:51:15.786Z,26.44
2018-09-22T08:52:15.749Z,26.47
2018-09-22T08:53:15.756Z,26.48
2018-09-22T08:54:15.760Z,26.47
2018-09-22T08:55:15.766Z,26.47
2018-09-22T08:56:15.772Z,26.43
2018-09-22T08:57:15.775Z,26.44
2018-09-22T08:58:15.784Z,26.47
2018-09-22T08:59:15.790Z,26.45
2018-09-22T09:00:15.795Z,26.43
2018-09-22T09:01:15.800Z,26.47
2018-09-22T09:02:15.808Z,26.44
2018-09-22T09:03:15.819Z,26.44
2018-09-22T09:04:15.821Z,26.44
2018-09-22T09:05:15.823Z,26.47
2018-09-22T09:06:15.835Z,26.40
2018-09-22T09:07:15.838Z,26.39
2018-09-22T09:08:15.841Z,26.43
2018-09-22T09:09:15.848Z,26.35
2018-09-22T09:10:15.852Z,26.40
2018-09-22T09:11:15.911Z,26.45
2018-09-22T09:12:15.868Z,26.36
2018-09-22T09:13:15.900Z,26.39
2018-09-22T09:14:15.877Z,26.36
2018-09-22T09:15:15.881Z,26.39
2018-09-22T09:16:15.892Z,26.36
2018-09-22T09:17:15.897Z,26.40
2018-09-22T09:18:15.901Z,26.37
2018-09-22T09:19:15.904Z,26.39
2018-09-22T09:20:15.910Z,26.39
2018-09-22T09:21:15.915Z,26.40
2018-09-22T09:22:15.921Z,26.43
2018-09-22T09:23:15.927Z,26.39
2018-09-22T09:24:15.933Z,26.36
2018-09-22T09:25:15.937Z,26.39
2018-09-22T09:26:15.944Z,26.47
2018-09-22T09:27:15.950Z,26.47
2018-09-22T09:28:15.959Z,26.45
2018-09-22T09:29:15.961Z,26.47
2018-09-22T09:30:15.966Z,26.40
2018-09-22T09:31:15.979Z,26.47
2018-09-22T09:32:15.979Z,26.36
2018-09-22T09:33:15.984Z,26.47
2018-09-22T09:34:15.989Z,26.40
2018-09-22T09:35:15.995Z,26.48
2018-09-22T09:36:15.999Z,26.45
2018-09-22T09:37:16.004Z,26.51
2018-09-22T09:38:16.014Z,26.50
2018-09-22T09:39:16.018Z,26.54
2018-09-22T09:40:16.025Z,26.51
2018-09-22T09:41:16.029Z,26.55
2018-09-22T09:42:16.036Z,26.52
2018-09-22T09:43:16.078Z,26.51
2018-09-22T09:44:16.054Z,26.52
2018-09-22T09:45:16.053Z,26.54
2018-09-22T09:46:16.068Z,26.62
2018-09-22T09:47:16.063Z,26.69
2018-09-22T09:48:16.070Z,26.58
2018-09-22T09:49:16.075Z,26.55
2018-09-22T09:50:16.084Z,26.63
2018-09-22T09:51:16.088Z,26.72
2018-09-22T09:52:16.095Z,26.73
2018-09-22T09:53:16.099Z,26.63
2018-09-22T09:54:16.104Z,26.76
2018-09-22T09:55:16.111Z,26.76
2018-09-22T09:56:16.114Z,26.75
2018-09-22T09:57:16.125Z,26.72
2018-09-22T09:58:16.127Z,26.81
2018-09-22T09:59:16.135Z,26.77
2018-09-22T10:00:16.142Z,26.69
2018-09-22T10:01:16.144Z,26.66
2018-09-22T10:02:16.153Z,26.80
2018-09-22T10:03:16.157Z,26.81
2018-09-22T10:04:16.191Z,26.82
2018-09-22T10:05:16.172Z,26.85
2018-09-22T10:06:16.185Z,26.89
2018-09-22T10:07:16.182Z,26.95
2018-09-22T10:08:16.186Z,26.89
2018-09-22T10:09:16.198Z,26.95
2018-09-22T10:10:16.198Z,27.03
2018-09-22T10:11:16.211Z,26.97
2018-09-22T10:12:16.215Z,27.10
2018-09-22T10:13:16.218Z,27.06
2018-09-22T10:14:16.224Z,27.14
2018-09-22T10:15:16.229Z,27.14
2018-09-22T10:16:16.235Z,27.13
2018-09-22T10:17:16.241Z,27.13
2018-09-22T10:18:16.247Z,27.22
2018-09-22T10:19:16.252Z,27.19
2018-09-22T10:20:16.284Z,27.27
2018-09-22T10:21:16.268Z,27.24
2018-09-22T10:22:16.271Z,27.24
2018-09-22T10:23:16.277Z,27.21
2018-09-22T10:24:16.283Z,27.18
2018-09-22T10:25:16.291Z,27.32
2018-09-22T10:26:16.299Z,27.32
2018-09-22T10:27:16.302Z,27.40
2018-09-22T10:28:16.359Z,27.37
2018-09-22T10:29:16.315Z,27.31
2018-09-22T10:30:16.323Z,27.39
2018-09-22T10:31:16.329Z,27.32
2018-09-22T10:32:16.334Z,27.41
2018-09-22T10:33:16.339Z,27.40
2018-09-22T10:34:16.345Z,27.44
2018-09-22T10:35:16.352Z,27.37
2018-09-22T10:36:16.390Z,27.49
2018-09-22T10:37:16.364Z,27.44
2018-09-22T10:38:16.370Z,27.39
2018-09-22T10:39:16.377Z,27.40
2018-09-22T10:40:16.387Z,27.50
2018-09-22T10:41:16.393Z,27.44
2018-09-22T10:42:16.418Z,27.46
2018-09-22T10:43:16.401Z,27.47
2018-09-22T10:44:16.408Z,27.47
2018-09-22T10:45:16.414Z,27.50
2018-09-22T10:46:16.421Z,27.50
2018-09-22T10:47:16.427Z,27.49
2018-09-22T10:48:16.434Z,27.51
2018-09-22T10:49:16.439Z,27.55
2018-09-22T10:50:16.447Z,27.55
2018-09-22T10:51:16.453Z,27.63
2018-09-22T10:52:16.460Z,27.55
2018-09-22T10:53:16.470Z,27.54
2018-09-22T10:54:16.475Z,27.57
2018-09-22T10:55:16.482Z,27.60
2018-09-22T10:56:16.483Z,27.62
2018-09-22T10:57:16.491Z,27.63
2018-09-22T10:58:16.497Z,27.67
2018-09-22T10:59:16.505Z,27.67
2018-09-22T11:00:16.511Z,27.65
2018-09-22T11:01:16.519Z,27.74
2018-09-22T11:02:16.523Z,27.72
2018-09-22T11:03:16.580Z,27.66
2018-09-22T11:04:16.540Z,27.77
2018-09-22T11:05:16.541Z,27.70
2018-09-22T11:06:16.548Z,27.69
2018-09-22T11:07:16.556Z,27.74
2018-09-22T11:08:16.563Z,27.69
2018-09-22T11:09:16.568Z,27.74
2018-09-22T11:10:16.575Z,27.87
2018-09-22T11:11:16.581Z,27.70
2018-09-22T11:12:16.588Z,27.78
2018-09-22T11:13:16.592Z,27.77
2018-09-22T11:14:16.611Z,27.82
2018-09-22T11:15:16.609Z,27.85
2018-09-22T11:16:16.619Z,27.70
2018-09-22T11:17:16.621Z,27.87
2018-09-22T11:18:16.628Z,27.94
2018-09-22T11:19:16.635Z,27.75
2018-09-22T11:20:16.641Z,27.78
2018-09-22T11:21:16.646Z,27.79
2018-09-22T11:22:16.652Z,27.72
2018-09-22T11:23:16.660Z,27.75
2018-09-22T11:24:16.680Z,27.84
2018-09-22T11:25:16.673Z,27.75
2018-09-22T11:26:16.686Z,27.79
2018-09-22T11:27:16.683Z,27.88
2018-09-22T11:28:16.698Z,27.82
2018-09-22T11:29:16.699Z,27.92
2018-09-22T11:30:16.706Z,27.90
2018-09-22T11:31:16.712Z,27.87
2018-09-22T11:32:16.719Z,27.90
2018-09-22T11:33:16.724Z,27.88
2018-09-22T11:34:16.732Z,27.92
2018-09-22T11:35:16.739Z,27.87
2018-09-22T11:36:16.744Z,27.93
2018-09-22T11:37:16.755Z,27.84
2018-09-22T11:38:16.815Z,27.93
2018-09-22T11:39:16.771Z,27.92
2018-09-22T11:40:16.773Z,27.93
2018-09-22T11:41:16.779Z,27.90
2018-09-22T11:42:16.786Z,27.93
2018-09-22T11:43:16.793Z,27.92
2018-09-22T11:44:16.799Z,27.90
2018-09-22T11:45:16.807Z,27.85
2018-09-22T11:46:16.873Z,27.97
2018-09-22T11:47:16.818Z,27.92
2018-09-22T11:48:16.825Z,27.96
2018-09-22T11:49:16.834Z,27.93
2018-09-22T11:50:16.839Z,27.94
2018-09-22T11:51:16.856Z,27.90
2018-09-22T11:52:16.857Z,27.94
2018-09-22T11:53:16.857Z,27.99
2018-09-22T11:54:16.866Z,27.97
2018-09-22T11:55:16.874Z,27.97
2018-09-22T11:56:16.924Z,27.93
2018-09-22T11:57:16.885Z,27.94
2018-09-22T11:58:16.899Z,28.02
2018-09-22T11:59:16.899Z,28.03
2018-09-22T12:00:16.906Z,28.00
2018-09-22T12:01:16.924Z,28.00
2018-09-22T12:02:16.927Z,27.97
2018-09-22T12:03:16.926Z,27.99
2018-09-22T12:04:16.936Z,27.99
2018-09-22T12:05:16.942Z,27.97
2018-09-22T12:06:17.034Z,28.09
2018-09-22T12:07:16.953Z,27.97
2018-09-22T12:08:16.960Z,28.02
2018-09-22T12:09:16.965Z,27.94
2018-09-22T12:10:16.974Z,27.99
2018-09-22T12:11:16.980Z,27.94
2018-09-22T12:12:16.988Z,28.00
2018-09-22T12:13:16.995Z,27.99
2018-09-22T12:14:17.000Z,27.94
2018-09-22T12:15:17.007Z,28.00
2018-09-22T12:16:17.015Z,27.97
2018-09-22T12:17:17.020Z,27.94
2018-09-22T12:18:17.029Z,27.96
2018-09-22T12:19:17.035Z,28.04
2018-09-22T12:20:17.041Z,28.09
2018-09-22T12:21:17.071Z,28.04
2018-09-22T12:22:17.056Z,27.96
2018-09-22T12:23:17.063Z,27.99
2018-09-22T12:24:17.068Z,28.04
2018-09-22T12:25:17.074Z,27.99
2018-09-22T12:26:17.082Z,28.06
2018-09-22T12:27:17.089Z,27.96
2018-09-22T12:28:17.095Z,28.04
2018-09-22T12:29:17.101Z,28.03
2018-09-22T12:30:17.108Z,28.04
2018-09-22T12:31:17.114Z,28.03
2018-09-22T12:32:17.122Z,28.03
2018-09-22T12:33:17.128Z,28.15
2018-09-22T12:34:17.192Z,28.03
2018-09-22T12:35:17.142Z,28.02
2018-09-22T12:36:17.150Z,28.11
2018-09-22T12:37:17.155Z,28.00
2018-09-22T12:38:17.165Z,28.17
2018-09-22T12:39:17.170Z,28.09
2018-09-22T12:40:17.176Z,28.14
2018-09-22T12:41:17.181Z,28.06
2018-09-22T12:42:17.189Z,28.17
2018-09-22T12:43:17.196Z,28.18
2018-09-22T12:44:17.209Z,28.21
2018-09-22T12:45:17.209Z,28.06
2018-09-22T12:46:17.216Z,28.15
2018-09-22T12:47:17.221Z,28.15
2018-09-22T12:48:17.230Z,28.03
2018-09-22T12:49:17.236Z,28.12
2018-09-22T12:50:17.242Z,28.12
2018-09-22T12:51:17.253Z,28.19
2018-09-22T12:52:17.258Z,28.19